Time;durP1;ratioP1;P1;durP2;ratioP2;P2;SDS_P1;SDS_P2;PMS_P1;PMS_P2;Temp;Humidity;BMP_temperature;BMP_pressure;BME280_temperature;BME280_humidity;BME280_pressure;Samples;Min_cycle;Max_cycle;Signal;HPM_P1;HPM_P2
2022/04/06 00:01:03;;;;;;;;;;;9.80;99.90;;;;;;5109866;28;19925;-78
2022/04/06 00:03:30;;;;;;;;;;;9.80;99.90;;;;;;5110611;28;19928;-78
2022/04/06 00:05:59;;;;;;;;;;;9.80;99.90;;;;;;5110123;28;19924;-78
2022/04/06 00:08:25;;;;;;;;;;;9.80;99.90;;;;;;5109676;28;19924;-80
2022/04/06 00:10:52;;;;;;;;;;;9.80;99.90;;;;;;5109233;28;19948;-78
2022/04/06 00:13:19;;;;;;;;;;;9.80;99.90;;;;;;5109688;28;19932;-78
2022/04/06 00:15:46;;;;;;;;;;;9.80;99.90;;;;;;5108986;28;19932;-78
2022/04/06 00:18:13;;;;;;;;;;;9.80;99.90;;;;;;5076561;28;19924;-78
2022/04/06 00:20:39;;;;;;;;;;;9.80;99.90;;;;;;5109476;28;19925;-78
2022/04/06 00:23:09;;;;;;;;;;;9.70;99.90;;;;;;5109847;28;19932;-79
2022/04/06 00:25:36;;;;;;;;;;;9.70;99.90;;;;;;5109732;28;20014;-78
2022/04/06 00:28:03;;;;;;;;;;;9.70;99.90;;;;;;5109959;28;19956;-78
2022/04/06 00:30:29;;;;;;;;;;;9.70;99.90;;;;;;5074918;28;19985;-78
2022/04/06 00:32:56;;;;;;;;;;;9.70;99.90;;;;;;5108922;28;20170;-78
2022/04/06 00:35:29;;;;;;;;;;;9.70;99.90;;;;;;5075084;28;19924;-78
2022/04/06 00:37:56;;;;;;;;;;;9.70;99.90;;;;;;5109819;28;19996;-78
2022/04/06 00:40:24;;;;;;;;;;;9.70;99.90;;;;;;5110300;28;19925;-78
2022/04/06 00:42:53;;;;;;;;;;;9.70;99.90;;;;;;5110512;28;19928;-79
2022/04/06 00:45:20;;;;;;;;;;;9.60;99.90;;;;;;5111093;28;19924;-78
2022/04/06 00:47:47;;;;;;;;;;;9.60;99.90;;;;;;5110954;28;19925;-78
2022/04/06 00:50:13;;;;;;;;;;;9.60;99.90;;;;;;5111327;28;19925;-78
2022/04/06 00:52:40;;;;;;;;;;;9.60;99.90;;;;;;5111181;28;19932;-78
2022/04/06 00:55:08;;;;;;;;;;;9.60;99.90;;;;;;5093364;28;19936;-78
2022/04/06 00:57:37;;;;;;;;;;;9.60;99.90;;;;;;5128317;28;19924;-78
2022/04/06 01:00:05;;;;;;;;;;;9.60;99.90;;;;;;5129878;28;19987;-79
2022/04/06 01:02:32;;;;;;;;;;;9.60;99.90;;;;;;5092067;28;19919;-79
2022/04/06 01:04:59;;;;;;;;;;;9.60;99.90;;;;;;5127890;28;19924;-79
2022/04/06 01:07:26;;;;;;;;;;;9.60;99.90;;;;;;5126912;28;19935;-78
2022/04/06 01:09:53;;;;;;;;;;;9.60;99.90;;;;;;5126819;28;19959;-78
2022/04/06 01:12:22;;;;;;;;;;;9.60;99.90;;;;;;5122043;28;19932;-78
2022/04/06 01:14:50;;;;;;;;;;;9.60;99.90;;;;;;5112889;28;19924;-78
2022/04/06 01:17:17;;;;;;;;;;;9.60;99.90;;;;;;5113202;28;19948;-78
2022/04/06 01:19:45;;;;;;;;;;;9.60;99.90;;;;;;5113444;28;19929;-78
2022/04/06 01:22:14;;;;;;;;;;;9.50;99.90;;;;;;5112969;28;20115;-78
2022/04/06 01:24:41;;;;;;;;;;;9.50;99.90;;;;;;5112109;28;19924;-78
2022/04/06 01:27:08;;;;;;;;;;;9.50;99.90;;;;;;5112414;28;19967;-78
2022/04/06 01:29:35;;;;;;;;;;;9.60;99.90;;;;;;5112325;28;19925;-79
2022/04/06 01:32:09;;;;;;;;;;;9.60;99.90;;;;;;5113442;28;19935;-78
2022/04/06 01:34:36;;;;;;;;;;;9.50;99.90;;;;;;5112336;28;19971;-78
2022/04/06 01:37:03;;;;;;;;;;;9.50;99.90;;;;;;5112682;28;19925;-78
2022/04/06 01:39:32;;;;;;;;;;;9.50;99.90;;;;;;5112269;28;19924;-78
2022/04/06 01:41:58;;;;;;;;;;;9.50;99.90;;;;;;5112277;28;19929;-78
2022/04/06 01:44:26;;;;;;;;;;;9.50;99.90;;;;;;5112587;28;19925;-78
2022/04/06 01:46:53;;;;;;;;;;;9.50;99.90;;;;;;5070448;28;19935;-78
2022/04/06 01:52:13;;;;;;;;;;;9.50;99.90;;;;;;5077178;28;19920;-78
2022/04/06 01:54:41;;;;;;;;;;;9.50;99.90;;;;;;5078174;28;19925;-79
2022/04/06 01:57:08;;;;;;;;;;;9.40;99.90;;;;;;5079105;28;19931;-78
2022/04/06 01:59:35;;;;;;;;;;;9.50;99.90;;;;;;5078107;28;19986;-78
2022/04/06 02:02:01;;;;;;;;;;;9.50;99.90;;;;;;5112702;28;19924;-78
2022/04/06 02:04:28;;;;;;;;;;;9.50;99.90;;;;;;5078441;28;20352;-78
2022/04/06 02:06:55;;;;;;;;;;;9.50;99.90;;;;;;5111609;28;20016;-78
2022/04/06 02:09:22;;;;;;;;;;;9.50;99.90;;;;;;5076841;28;20384;-78
2022/04/06 02:11:51;;;;;;;;;;;9.50;99.90;;;;;;5111587;28;19925;-78
2022/04/06 02:14:17;;;;;;;;;;;9.50;99.90;;;;;;5095258;22;19928;-74
2022/04/06 02:16:44;;;;;;;;;;;9.50;99.90;;;;;;5052242;28;19925;-76
2022/04/06 02:19:11;;;;;;;;;;;9.50;99.90;;;;;;5051653;28;19968;-75
2022/04/06 02:21:37;;;;;;;;;;;9.50;99.90;;;;;;5068804;28;19932;-78
2022/04/06 02:24:04;;;;;;;;;;;9.50;99.90;;;;;;5051918;28;20364;-76
2022/04/06 02:26:31;;;;;;;;;;;9.50;99.90;;;;;;5052473;28;20023;-76
2022/04/06 02:29:00;;;;;;;;;;;9.40;99.90;;;;;;5053091;28;19982;-78
2022/04/06 02:31:27;;;;;;;;;;;;;;;;;;5052406;28;19935;-76
2022/04/06 02:33:54;;;;;;;;;;;9.40;99.90;;;;;;5051434;28;19932;-76
2022/04/06 02:36:20;;;;;;;;;;;9.40;99.90;;;;;;5051400;28;20384;-77
2022/04/06 02:38:47;;;;;;;;;;;9.40;99.90;;;;;;5052870;28;20447;-75
2022/04/06 02:41:14;;;;;;;;;;;9.40;99.90;;;;;;5051117;28;19956;-76
2022/04/06 02:43:41;;;;;;;;;;;9.40;99.90;;;;;;5051161;28;19975;-77
2022/04/06 02:46:09;;;;;;;;;;;9.40;99.90;;;;;;5051164;28;19970;-76
2022/04/06 02:48:36;;;;;;;;;;;9.40;99.90;;;;;;5052021;28;20392;-75
2022/04/06 02:51:03;;;;;;;;;;;9.40;99.90;;;;;;5051723;28;19932;-73
2022/04/06 02:53:29;;;;;;;;;;;9.30;99.90;;;;;;5051593;28;19925;-76
2022/04/06 02:55:56;;;;;;;;;;;9.40;99.90;;;;;;5051171;28;20134;-76
2022/04/06 02:58:23;;;;;;;;;;;9.30;99.90;;;;;;5051887;28;19925;-76
2022/04/06 03:00:50;;;;;;;;;;;9.40;99.90;;;;;;5051550;28;19971;-76
2022/04/06 03:03:18;;;;;;;;;;;9.40;99.90;;;;;;5051638;28;19929;-76
2022/04/06 03:05:45;;;;;;;;;;;9.40;99.90;;;;;;5051128;28;19925;-76
2022/04/06 03:08:11;;;;;;;;;;;9.30;99.90;;;;;;5051628;28;19924;-76
2022/04/06 03:10:38;;;;;;;;;;;9.40;99.90;;;;;;5050818;28;19936;-76
2022/04/06 03:13:05;;;;;;;;;;;9.40;99.90;;;;;;5051503;28;19925;-76
2022/04/06 03:15:32;;;;;;;;;;;9.30;99.90;;;;;;5050615;28;20315;-77
2022/04/06 03:17:59;;;;;;;;;;;9.40;99.90;;;;;;5059924;28;19928;-76
2022/04/06 03:20:27;;;;;;;;;;;9.40;99.90;;;;;;5049844;28;19925;-76
2022/04/06 03:22:54;;;;;;;;;;;9.30;99.90;;;;;;5050827;28;19971;-76
2022/04/06 03:25:21;;;;;;;;;;;9.30;99.90;;;;;;5050243;28;19924;-78
2022/04/06 03:27:48;;;;;;;;;;;;;;;;;;5050605;28;19925;-74
2022/04/06 03:30:15;;;;;;;;;;;9.30;99.90;;;;;;5050393;28;19925;-77
2022/04/06 03:32:42;;;;;;;;;;;9.30;99.90;;;;;;5050758;28;19924;-74
2022/04/06 03:35:10;;;;;;;;;;;9.20;99.90;;;;;;5050648;28;19925;-78
2022/04/06 03:37:38;;;;;;;;;;;9.30;99.90;;;;;;5050956;28;19924;-76
2022/04/06 03:40:06;;;;;;;;;;;9.30;99.90;;;;;;5050321;28;19924;-76
2022/04/06 03:42:33;;;;;;;;;;;9.20;99.90;;;;;;5050704;28;20015;-75
2022/04/06 03:44:59;;;;;;;;;;;9.20;99.90;;;;;;5050163;28;20031;-77
2022/04/06 03:47:30;;;;;;;;;;;9.20;99.90;;;;;;5050571;28;19929;-76
2022/04/06 03:49:56;;;;;;;;;;;9.30;99.90;;;;;;5049511;28;20023;-76
2022/04/06 03:52:23;;;;;;;;;;;9.20;99.90;;;;;;5050154;28;19994;-76
2022/04/06 03:54:52;;;;;;;;;;;9.30;99.90;;;;;;5048417;28;19932;-78
2022/04/06 03:57:18;;;;;;;;;;;9.20;99.90;;;;;;5049046;28;19925;-77
2022/04/06 03:59:45;;;;;;;;;;;9.30;99.90;;;;;;5050056;28;19929;-76
2022/04/06 04:02:12;;;;;;;;;;;9.30;99.90;;;;;;5050264;28;19925;-76
2022/04/06 04:04:39;;;;;;;;;;;9.30;99.90;;;;;;5050510;28;19924;-75
2022/04/06 04:07:07;;;;;;;;;;;9.20;99.90;;;;;;5050581;28;19928;-77
2022/04/06 04:09:33;;;;;;;;;;;9.20;99.90;;;;;;5049832;28;20461;-76
2022/04/06 04:12:02;;;;;;;;;;;9.20;99.90;;;;;;5050021;28;20320;-75
2022/04/06 04:14:31;;;;;;;;;;;9.20;99.90;;;;;;5049923;28;19931;-76
2022/04/06 04:16:59;;;;;;;;;;;9.20;99.90;;;;;;5050396;28;20395;-77
2022/04/06 04:19:25;;;;;;;;;;;9.10;99.90;;;;;;5050187;28;20415;-76
2022/04/06 04:21:52;;;;;;;;;;;9.20;99.90;;;;;;5050225;28;19947;-77
2022/04/06 04:24:19;;;;;;;;;;;9.20;99.90;;;;;;5049691;28;19932;-76
2022/04/06 04:26:46;;;;;;;;;;;9.20;99.90;;;;;;5049884;28;19929;-76
2022/04/06 04:29:14;;;;;;;;;;;9.10;99.90;;;;;;5049588;28;19925;-76
2022/04/06 04:31:41;;;;;;;;;;;9.10;99.90;;;;;;5049891;28;19925;-76
2022/04/06 04:34:08;;;;;;;;;;;9.10;99.90;;;;;;5049698;28;20359;-74
2022/04/06 04:36:35;;;;;;;;;;;9.10;99.90;;;;;;5049837;28;19925;-76
2022/04/06 04:39:02;;;;;;;;;;;9.00;99.90;;;;;;5049417;28;19978;-76
2022/04/06 04:41:29;;;;;;;;;;;9.00;99.90;;;;;;5049795;28;19925;-76
2022/04/06 04:43:56;;;;;;;;;;;9.00;99.90;;;;;;5049329;28;19925;-76
2022/04/06 04:46:25;;;;;;;;;;;9.10;99.90;;;;;;5049839;28;19925;-76
2022/04/06 04:48:51;;;;;;;;;;;9.00;99.90;;;;;;5049623;28;19931;-74
2022/04/06 04:51:18;;;;;;;;;;;9.00;99.90;;;;;;5049664;28;19928;-76
2022/04/06 04:53:45;;;;;;;;;;;9.00;99.90;;;;;;5049232;28;20415;-76
2022/04/06 04:56:12;;;;;;;;;;;9.00;99.90;;;;;;5049475;28;19925;-76
2022/04/06 04:58:39;;;;;;;;;;;9.00;99.90;;;;;;5049183;28;20399;-76
2022/04/06 05:01:07;;;;;;;;;;;9.00;99.90;;;;;;5049346;28;19932;-76
2022/04/06 05:03:35;;;;;;;;;;;9.00;99.90;;;;;;5045908;28;20336;-76
2022/04/06 05:06:02;;;;;;;;;;;9.00;99.90;;;;;;5049492;28;19929;-75
2022/04/06 05:08:28;;;;;;;;;;;9.00;99.90;;;;;;5049143;28;19925;-76
2022/04/06 05:10:55;;;;;;;;;;;9.00;99.90;;;;;;5049495;28;19975;-75
2022/04/06 05:13:22;;;;;;;;;;;9.00;99.90;;;;;;5049481;28;20296;-76
2022/04/06 05:15:49;;;;;;;;;;;9.00;99.90;;;;;;5049137;28;19924;-76
2022/04/06 05:18:16;;;;;;;;;;;9.00;99.90;;;;;;5049411;28;19979;-76
2022/04/06 05:20:43;;;;;;;;;;;;;;;;;;5049403;28;19925;-82
2022/04/06 05:23:11;;;;;;;;;;;9.00;99.90;;;;;;5049655;28;19929;-75
2022/04/06 05:25:38;;;;;;;;;;;9.00;99.90;;;;;;5049352;28;19968;-75
2022/04/06 05:28:05;;;;;;;;;;;9.00;99.90;;;;;;5049164;28;19929;-75
2022/04/06 05:30:33;;;;;;;;;;;9.00;99.90;;;;;;5049165;28;19925;-75
2022/04/06 05:33:00;;;;;;;;;;;9.00;99.90;;;;;;5049037;28;19925;-75
2022/04/06 05:35:27;;;;;;;;;;;9.00;99.90;;;;;;5048695;28;19928;-75
2022/04/06 05:37:55;;;;;;;;;;;9.00;99.90;;;;;;5049113;28;20031;-75
2022/04/06 05:40:24;;;;;;;;;;;9.00;99.90;;;;;;5049675;28;19951;-76
2022/04/06 05:42:51;;;;;;;;;;;9.00;99.90;;;;;;5052885;28;19925;-75
2022/04/06 05:45:18;;;;;;;;;;;9.00;99.90;;;;;;5052592;28;20390;-75
2022/04/06 05:47:45;;;;;;;;;;;9.00;99.90;;;;;;5053043;28;19924;-76
2022/04/06 05:50:12;;;;;;;;;;;9.00;99.90;;;;;;5052784;28;19932;-73
2022/04/06 05:52:39;;;;;;;;;;;9.00;99.90;;;;;;5052911;28;19936;-72
2022/04/06 05:55:08;;;;;;;;;;;9.00;99.90;;;;;;5050904;28;20305;-76
2022/04/06 05:57:36;;;;;;;;;;;9.00;99.90;;;;;;5068289;28;19929;-76
2022/04/06 06:00:06;;;;;;;;;;;9.00;99.90;;;;;;5052724;28;19982;-76
2022/04/06 06:02:38;;;;;;;;;;;9.00;99.90;;;;;;5050203;28;20126;-75
2022/04/06 06:05:05;;;;;;;;;;;9.00;99.90;;;;;;5051947;28;20469;-78
2022/04/06 06:07:32;;;;;;;;;;;9.00;99.90;;;;;;5052597;28;19925;-76
2022/04/06 06:09:59;;;;;;;;;;;9.10;99.90;;;;;;5052709;28;19939;-76
2022/04/06 06:12:25;;;;;;;;;;;9.10;99.90;;;;;;5060720;28;19932;-76
2022/04/06 06:14:53;;;;;;;;;;;9.10;99.90;;;;;;5065602;28;19924;-76
2022/04/06 06:17:20;;;;;;;;;;;9.10;99.90;;;;;;5053039;28;19929;-76
2022/04/06 06:19:47;;;;;;;;;;;9.10;99.90;;;;;;5052185;28;19935;-76
2022/04/06 06:22:14;;;;;;;;;;;9.00;99.90;;;;;;5053328;28;19933;-76
2022/04/06 06:24:40;;;;;;;;;;;9.00;99.90;;;;;;5061072;28;19925;-74
2022/04/06 06:27:07;;;;;;;;;;;9.00;99.90;;;;;;5056301;28;20004;-76
2022/04/06 06:29:34;;;;;;;;;;;9.00;99.90;;;;;;5062956;28;19925;-75
2022/04/06 06:32:02;;;;;;;;;;;9.10;99.90;;;;;;5055957;28;19929;-76
2022/04/06 06:34:29;;;;;;;;;;;9.10;99.90;;;;;;5052057;28;19935;-76
2022/04/06 06:36:56;;;;;;;;;;;9.10;99.90;;;;;;5057966;28;19929;-76
2022/04/06 06:39:23;;;;;;;;;;;9.10;99.90;;;;;;5055075;28;19925;-75
2022/04/06 06:41:49;;;;;;;;;;;9.10;99.90;;;;;;5050914;28;19936;-76
2022/04/06 06:44:17;;;;;;;;;;;9.10;99.90;;;;;;5056934;28;19932;-76
2022/04/06 06:46:44;;;;;;;;;;;9.10;99.90;;;;;;5057650;28;19925;-76
2022/04/06 06:49:12;;;;;;;;;;;9.20;99.90;;;;;;5060470;28;19925;-75
2022/04/06 06:51:39;;;;;;;;;;;9.20;99.90;;;;;;5071716;28;20403;-76
2022/04/06 06:54:06;;;;;;;;;;;9.20;99.90;;;;;;5071019;28;20015;-77
2022/04/06 06:56:33;;;;;;;;;;;9.20;99.90;;;;;;5064932;28;20417;-75
2022/04/06 06:59:00;;;;;;;;;;;9.20;99.90;;;;;;5057899;28;20385;-77
2022/04/06 07:01:27;;;;;;;;;;;9.20;99.90;;;;;;5052092;28;20020;-78
2022/04/06 07:03:54;;;;;;;;;;;9.20;99.90;;;;;;5057456;28;20331;-74
2022/04/06 07:06:22;;;;;;;;;;;9.20;99.90;;;;;;5060305;28;19929;-76
2022/04/06 07:08:49;;;;;;;;;;;9.20;99.90;;;;;;5057300;28;19951;-75
2022/04/06 07:11:16;;;;;;;;;;;9.20;99.90;;;;;;5051167;28;19951;-75
2022/04/06 07:13:42;;;;;;;;;;;9.20;99.90;;;;;;5050890;28;19939;-78
2022/04/06 07:16:11;;;;;;;;;;;9.10;99.90;;;;;;5051196;28;20384;-76
2022/04/06 07:18:37;;;;;;;;;;;9.10;99.90;;;;;;5051068;28;19968;-76
2022/04/06 07:21:04;;;;;;;;;;;9.10;99.90;;;;;;5051014;28;19975;-75
2022/04/06 07:23:33;;;;;;;;;;;9.10;99.90;;;;;;5051062;28;19929;-79
2022/04/06 07:26:00;;;;;;;;;;;9.20;99.90;;;;;;5050709;28;19925;-77
2022/04/06 07:28:27;;;;;;;;;;;9.20;99.90;;;;;;5050969;28;19979;-77
2022/04/06 07:30:53;;;;;;;;;;;9.20;99.90;;;;;;5050836;28;20372;-77
2022/04/06 07:33:20;;;;;;;;;;;9.30;99.90;;;;;;5050835;28;20384;-77
2022/04/06 07:35:47;;;;;;;;;;;9.30;99.90;;;;;;5050794;28;19925;-77
2022/04/06 07:38:14;;;;;;;;;;;9.30;99.90;;;;;;5050499;28;19925;-76
2022/04/06 07:40:42;;;;;;;;;;;9.30;99.90;;;;;;5050613;28;19924;-76
2022/04/06 07:43:10;;;;;;;;;;;9.30;99.90;;;;;;5050795;28;19929;-74
2022/04/06 07:45:38;;;;;;;;;;;;;;;;;;5050225;28;19925;-75
2022/04/06 07:48:05;;;;;;;;;;;9.20;99.90;;;;;;5051630;28;19929;-75
2022/04/06 07:50:32;;;;;;;;;;;9.30;99.90;;;;;;5050288;28;20016;-76
2022/04/06 07:52:59;;;;;;;;;;;9.30;99.90;;;;;;5050220;28;20362;-76
2022/04/06 07:55:26;;;;;;;;;;;9.30;99.90;;;;;;5050272;28;19929;-76
2022/04/06 07:57:54;;;;;;;;;;;9.30;99.90;;;;;;5050129;28;19925;-76
2022/04/06 08:00:21;;;;;;;;;;;9.30;99.90;;;;;;5049990;28;19925;-75
2022/04/06 08:02:48;;;;;;;;;;;9.30;99.90;;;;;;5049723;28;19929;-75
2022/04/06 08:05:15;;;;;;;;;;;9.30;99.90;;;;;;5049686;28;20346;-76
2022/04/06 08:07:44;;;;;;;;;;;9.30;99.90;;;;;;5050336;28;19931;-76
2022/04/06 08:10:11;;;;;;;;;;;;;;;;;;5049751;28;19971;-76
2022/04/06 08:12:37;;;;;;;;;;;9.30;99.90;;;;;;5050212;28;20438;-75
2022/04/06 08:15:05;;;;;;;;;;;;;;;;;;5049617;28;19948;-77
2022/04/06 08:17:32;;;;;;;;;;;;;;;;;;5051000;28;19925;-75
2022/04/06 08:20:00;;;;;;;;;;;9.40;99.90;;;;;;5050045;28;20343;-76
2022/04/06 08:22:27;;;;;;;;;;;9.30;99.90;;;;;;5049723;28;20342;-75
2022/04/06 08:24:54;;;;;;;;;;;9.40;99.90;;;;;;5051108;28;19925;-75
2022/04/06 08:27:21;;;;;;;;;;;;;;;;;;5062027;28;20307;-77
2022/04/06 08:29:48;;;;;;;;;;;9.40;99.90;;;;;;5055597;28;20442;-76
2022/04/06 08:32:15;;;;;;;;;;;9.40;99.90;;;;;;5050112;28;19925;-74
2022/04/06 08:34:42;;;;;;;;;;;9.40;99.90;;;;;;5049396;28;19932;-74
2022/04/06 08:37:11;;;;;;;;;;;9.40;99.90;;;;;;5050179;28;19929;-78
2022/04/06 08:39:38;;;;;;;;;;;9.50;99.90;;;;;;5049607;28;19925;-76
2022/04/06 08:42:05;;;;;;;;;;;9.50;99.90;;;;;;5050221;28;19948;-78
2022/04/06 08:44:32;;;;;;;;;;;9.50;99.90;;;;;;5049660;28;19925;-76
2022/04/06 08:47:02;;;;;;;;;;;9.50;99.90;;;;;;5049802;28;19982;-76
2022/04/06 08:49:29;;;;;;;;;;;;;;;;;;5049648;28;19986;-75
2022/04/06 08:51:56;;;;;;;;;;;9.60;99.90;;;;;;5051030;28;19925;-75
2022/04/06 08:54:25;;;;;;;;;;;9.70;99.90;;;;;;5049437;28;19935;-76
2022/04/06 08:56:51;;;;;;;;;;;9.80;99.90;;;;;;5049809;28;19925;-74
2022/04/06 08:59:18;;;;;;;;;;;9.90;99.90;;;;;;5049455;28;19925;-75
2022/04/06 09:01:45;;;;;;;;;;;10.00;99.90;;;;;;5049399;28;19929;-76
2022/04/06 09:04:12;;;;;;;;;;;10.00;99.90;;;;;;5049469;28;19925;-77
2022/04/06 09:06:40;;;;;;;;;;;10.10;99.90;;;;;;5049921;28;19924;-74
2022/04/06 09:09:08;;;;;;;;;;;10.20;99.90;;;;;;5049159;28;20335;-77
2022/04/06 09:11:43;;;;;;;;;;;10.30;99.90;;;;;;5049847;28;19947;-77
2022/04/06 09:14:10;;;;;;;;;;;10.30;99.90;;;;;;5049393;28;19925;-78
2022/04/06 09:16:37;;;;;;;;;;;10.50;99.90;;;;;;5052145;28;19925;-76
2022/04/06 09:19:07;;;;;;;;;;;10.40;99.90;;;;;;5060744;28;19924;-73
2022/04/06 09:21:39;;;;;;;;;;;10.50;99.90;;;;;;5067891;28;20019;-75
2022/04/06 09:24:06;;;;;;;;;;;;;;;;;;5062530;28;19960;-76
2022/04/06 09:26:33;;;;;;;;;;;10.80;99.90;;;;;;5062379;28;20399;-76
2022/04/06 09:29:02;;;;;;;;;;;11.10;99.90;;;;;;5069596;28;19925;-76
2022/04/06 09:31:37;;;;;;;;;;;10.90;99.90;;;;;;5073626;28;19982;-76
2022/04/06 09:34:04;;;;;;;;;;;11.00;99.90;;;;;;5073400;28;19925;-76
2022/04/06 09:36:32;;;;;;;;;;;10.90;99.90;;;;;;5055130;28;19933;-78
2022/04/06 09:38:59;;;;;;;;;;;11.00;99.90;;;;;;5053227;28;19932;-75
2022/04/06 09:41:26;;;;;;;;;;;11.00;99.90;;;;;;5053262;28;19928;-76
2022/04/06 09:43:53;;;;;;;;;;;10.90;99.90;;;;;;5052846;28;19932;-74
2022/04/06 09:49:08;;;;;;;;;;;;;;;;;;5052726;28;19998;-74
2022/04/06 09:51:35;;;;;;;;;;;11.10;99.90;;;;;;5053087;28;19928;-76
2022/04/06 09:54:03;;;;;;;;;;;11.10;99.90;;;;;;5052310;28;19932;-78
2022/04/06 09:56:31;;;;;;;;;;;11.10;99.90;;;;;;5052604;28;19936;-77
2022/04/06 09:58:58;;;;;;;;;;;;;;;;;;5052313;28;20350;-76
2022/04/06 10:01:31;;;;;;;;;;;10.80;99.90;;;;;;5052426;28;19931;-76
2022/04/06 10:04:02;;;;;;;;;;;10.80;99.90;;;;;;5052337;28;19925;-76
2022/04/06 10:06:29;;;;;;;;;;;10.80;99.90;;;;;;5052506;28;19929;-76
2022/04/06 10:08:56;;;;;;;;;;;10.80;99.90;;;;;;5051978;28;19925;-76
2022/04/06 10:11:23;;;;;;;;;;;10.80;99.90;;;;;;5041153;28;19925;-76
2022/04/06 10:13:52;;;;;;;;;;;10.80;99.90;;;;;;5032074;28;19925;-75
2022/04/06 10:16:20;;;;;;;;;;;10.80;99.90;;;;;;5032345;28;19929;-76
2022/04/06 10:18:47;;;;;;;;;;;;;;;;;;5032289;28;19980;-75
2022/04/06 10:21:19;;;;;;;;;;;10.70;99.90;;;;;;5033522;28;19929;-75
2022/04/06 10:23:54;;;;;;;;;;;10.60;99.90;;;;;;5035467;28;19933;-76
2022/04/06 10:26:26;;;;;;;;;;;10.80;99.90;;;;;;5050114;28;19932;-75
2022/04/06 10:28:54;;;;;;;;;;;;;;;;;;5046364;28;19925;-75
2022/04/06 10:31:22;;;;;;;;;;;10.60;99.90;;;;;;5051955;28;19932;-74
2022/04/06 10:33:50;;;;;;;;;;;10.60;99.90;;;;;;5051586;28;19925;-75
2022/04/06 10:36:19;;;;;;;;;;;10.50;99.90;;;;;;5052043;28;20065;-75
2022/04/06 10:39:04;;;;;;;;;;;10.50;99.90;;;;;;5051488;28;19925;-75
2022/04/06 10:41:31;;;;;;;;;;;10.60;99.90;;;;;;5051566;28;20404;-75
2022/04/06 10:43:58;;;;;;;;;;;;;;;;;;5051515;28;19925;-76
2022/04/06 10:46:38;;;;;;;;;;;10.60;99.90;;;;;;5051762;28;20462;-76
2022/04/06 10:49:13;;;;;;;;;;;10.70;99.90;;;;;;5051187;28;20392;-75
2022/04/06 10:51:42;;;;;;;;;;;10.70;99.90;;;;;;5051525;28;20392;-76
2022/04/06 10:54:34;;;;;;;;;;;10.70;99.90;;;;;;5051293;28;19955;-75
2022/04/06 10:57:01;;;;;;;;;;;10.70;99.90;;;;;;5051347;28;20396;-77
2022/04/06 10:59:28;;;;;;;;;;;10.80;99.90;;;;;;5051654;28;19931;-76
2022/04/06 11:01:55;;;;;;;;;;;;;;;;;;5051617;28;19925;-76
2022/04/06 11:04:23;;;;;;;;;;;10.80;99.90;;;;;;5050568;28;20315;-76
2022/04/06 11:06:55;;;;;;;;;;;11.00;99.90;;;;;;5057629;28;19932;-76
2022/04/06 11:12:10;;;;;;;;;;;11.60;99.90;;;;;;5051313;28;19983;-76
2022/04/06 11:14:37;;;;;;;;;;;11.60;99.90;;;;;;5050833;28;19924;-76
2022/04/06 11:17:34;;;;;;;;;;;11.70;99.90;;;;;;5051214;28;19929;-76
2022/04/06 11:20:01;;;;;;;;;;;11.50;99.90;;;;;;5051031;28;20383;-76
2022/04/06 11:22:30;;;;;;;;;;;11.20;99.90;;;;;;5050965;28;20326;-77
2022/04/06 11:24:57;;;;;;;;;;;11.30;99.90;;;;;;5050682;28;20303;-77
2022/04/06 11:27:28;;;;;;;;;;;11.10;99.90;;;;;;5050986;28;19931;-76
2022/04/06 11:29:55;;;;;;;;;;;;;;;;;;5050655;28;20442;-76
2022/04/06 11:32:22;;;;;;;;;;;11.00;99.90;;;;;;5059238;28;19928;-77
2022/04/06 11:34:51;;;;;;;;;;;11.00;99.90;;;;;;5031917;28;20268;-76
2022/04/06 11:37:17;;;;;;;;;;;11.00;99.90;;;;;;5050738;28;20350;-77
2022/04/06 11:39:46;;;;;;;;;;;10.90;99.90;;;;;;5050015;28;19932;-77
2022/04/06 11:42:13;;;;;;;;;;;;;;;;;;5051145;28;19974;-76
2022/04/06 11:44:39;;;;;;;;;;;10.90;99.90;;;;;;5050466;28;19929;-76
2022/04/06 11:47:06;;;;;;;;;;;10.90;99.90;;;;;;5050861;28;19991;-78
2022/04/06 11:49:35;;;;;;;;;;;10.80;99.90;;;;;;5050343;28;19933;-76
2022/04/06 11:52:02;;;;;;;;;;;10.90;99.90;;;;;;5051006;28;19949;-73
2022/04/06 11:54:30;;;;;;;;;;;10.80;99.90;;;;;;5050633;28;19929;-74
2022/04/06 11:56:58;;;;;;;;;;;10.80;99.90;;;;;;5050638;28;20488;-76
2022/04/06 11:59:26;;;;;;;;;;;10.80;99.90;;;;;;5054887;28;19925;-75
2022/04/06 12:01:53;;;;;;;;;;;10.80;99.90;;;;;;5073179;28;19964;-76
2022/04/06 12:04:21;;;;;;;;;;;10.80;99.90;;;;;;5054297;28;19925;-76
2022/04/06 12:06:48;;;;;;;;;;;10.80;99.90;;;;;;5063090;28;19925;-77
2022/04/06 12:09:15;;;;;;;;;;;10.80;99.90;;;;;;5063404;28;19976;-76
2022/04/06 12:11:42;;;;;;;;;;;10.70;99.90;;;;;;5059074;28;19932;-77
2022/04/06 12:14:11;;;;;;;;;;;10.70;99.90;;;;;;5057315;28;20273;-77
2022/04/06 12:16:39;;;;;;;;;;;10.70;99.90;;;;;;5050298;28;19929;-77
2022/04/06 12:19:12;;;;;;;;;;;10.70;99.90;;;;;;5049822;28;19924;-76
2022/04/06 12:21:43;;;;;;;;;;;10.70;99.90;;;;;;5050267;28;20019;-76
2022/04/06 12:24:11;;;;;;;;;;;10.80;99.90;;;;;;5049939;28;20024;-77
2022/04/06 12:26:42;;;;;;;;;;;10.80;99.90;;;;;;5050477;28;20312;-76
2022/04/06 12:29:14;;;;;;;;;;;10.80;99.90;;;;;;5050210;28;20377;-76
2022/04/06 12:31:42;;;;;;;;;;;10.80;99.90;;;;;;5057179;28;19924;-76
2022/04/06 12:34:09;;;;;;;;;;;10.80;99.90;;;;;;5049848;28;20018;-76
2022/04/06 12:36:37;;;;;;;;;;;10.90;99.90;;;;;;5050438;28;19932;-75
2022/04/06 12:39:06;;;;;;;;;;;10.90;99.90;;;;;;5049612;28;20327;-76
2022/04/06 12:41:34;;;;;;;;;;;11.10;99.90;;;;;;5050126;28;20007;-76
2022/04/06 12:44:02;;;;;;;;;;;11.10;99.90;;;;;;5049550;28;19936;-75
2022/04/06 12:46:38;;;;;;;;;;;11.20;99.90;;;;;;5049689;28;19932;-77
2022/04/06 12:49:20;;;;;;;;;;;11.10;99.90;;;;;;5055499;28;19925;-76
2022/04/06 12:51:48;;;;;;;;;;;11.20;99.90;;;;;;5055879;28;19925;-77
2022/04/06 12:54:16;;;;;;;;;;;11.20;99.90;;;;;;5059889;28;19978;-76
2022/04/06 12:56:58;;;;;;;;;;;11.40;99.90;;;;;;5057418;28;19951;-81
2022/04/06 12:59:35;;;;;;;;;;;11.90;99.90;;;;;;5058882;28;19925;-76
2022/04/06 13:02:04;;;;;;;;;;;12.10;99.90;;;;;;5062515;28;19928;-84
2022/04/06 13:04:31;;;;;;;;;;;12.10;99.90;;;;;;5060851;28;19956;-85
2022/04/06 13:06:58;;;;;;;;;;;11.90;99.90;;;;;;5060718;28;19925;-81
2022/04/06 13:09:25;;;;;;;;;;;11.70;99.90;;;;;;5051493;28;19992;-82
2022/04/06 13:11:52;;;;;;;;;;;11.50;99.90;;;;;;5053764;28;19925;-77
2022/04/06 13:14:20;;;;;;;;;;;;;;;;;;5053090;28;19956;-76
2022/04/06 13:16:47;;;;;;;;;;;11.50;99.90;;;;;;5057117;28;19925;-80
2022/04/06 13:19:15;;;;;;;;;;;;;;;;;;5056778;28;19935;-75
2022/04/06 13:21:43;;;;;;;;;;;11.40;99.90;;;;;;5052956;28;19926;-77
2022/04/06 13:24:10;;;;;;;;;;;11.30;99.90;;;;;;5049631;28;19943;-77
2022/04/06 13:26:37;;;;;;;;;;;11.10;99.90;;;;;;5062246;28;19931;-76
2022/04/06 13:29:04;;;;;;;;;;;11.10;99.90;;;;;;5059037;28;19929;-75
2022/04/06 13:31:31;;;;;;;;;;;11.10;99.90;;;;;;5066151;28;19924;-76
2022/04/06 13:33:57;;;;;;;;;;;11.10;99.90;;;;;;5069895;28;19929;-76
2022/04/06 13:36:24;;;;;;;;;;;11.10;99.90;;;;;;5062072;28;19932;-77
2022/04/06 13:38:53;;;;;;;;;;;11.00;99.90;;;;;;5073089;28;19954;-77
2022/04/06 13:41:20;;;;;;;;;;;10.90;99.90;;;;;;5071032;28;20581;-75
2022/04/06 13:43:46;;;;;;;;;;;11.00;99.90;;;;;;5058889;28;19925;-75
2022/04/06 13:46:13;;;;;;;;;;;11.00;99.90;;;;;;5053051;28;19932;-76
2022/04/06 13:48:40;;;;;;;;;;;11.00;99.90;;;;;;5054067;28;19932;-76
2022/04/06 13:51:08;;;;;;;;;;;11.10;99.90;;;;;;5065215;28;19928;-75
2022/04/06 13:53:35;;;;;;;;;;;11.10;99.90;;;;;;5057408;28;20385;-76
2022/04/06 13:56:03;;;;;;;;;;;11.20;99.90;;;;;;5053106;28;19928;-75
2022/04/06 13:58:30;;;;;;;;;;;11.20;99.90;;;;;;5052527;28;19931;-76
2022/04/06 14:00:58;;;;;;;;;;;11.20;99.90;;;;;;5051613;28;19925;-76
2022/04/06 14:03:24;;;;;;;;;;;11.40;99.90;;;;;;5051294;28;19972;-76
2022/04/06 14:05:55;;;;;;;;;;;11.40;99.90;;;;;;5053980;28;19929;-79
2022/04/06 14:08:22;;;;;;;;;;;11.50;99.90;;;;;;5071749;28;19928;-76
2022/04/06 14:10:49;;;;;;;;;;;11.70;99.90;;;;;;5065645;28;20302;-76
2022/04/06 14:13:17;;;;;;;;;;;11.70;99.90;;;;;;5052091;28;19967;-75
2022/04/06 14:15:44;;;;;;;;;;;11.60;99.90;;;;;;5052502;28;19925;-75
2022/04/06 14:18:11;;;;;;;;;;;11.50;99.90;;;;;;5052033;28;20289;-74
2022/04/06 14:20:37;;;;;;;;;;;11.60;99.90;;;;;;5050923;28;19929;-75
2022/04/06 14:23:04;;;;;;;;;;;11.70;99.90;;;;;;5052007;28;19924;-74
2022/04/06 14:25:31;;;;;;;;;;;11.80;99.90;;;;;;5054224;28;19924;-74
2022/04/06 14:27:58;;;;;;;;;;;11.70;99.90;;;;;;5055078;28;19931;-75
2022/04/06 14:30:27;;;;;;;;;;;11.70;99.90;;;;;;5051773;28;19982;-75
2022/04/06 14:32:54;;;;;;;;;;;11.80;99.90;;;;;;5047037;28;19925;-75
2022/04/06 14:35:23;;;;;;;;;;;11.90;99.90;;;;;;5050868;28;19974;-76
2022/04/06 14:37:50;;;;;;;;;;;12.10;99.90;;;;;;5051248;28;19932;-74
2022/04/06 14:40:17;;;;;;;;;;;12.10;99.90;;;;;;5051356;28;19972;-75
2022/04/06 14:42:44;;;;;;;;;;;12.10;99.90;;;;;;5045324;28;20329;-73